createdAt,value
2023-06-17T00:00:40.629Z,66.95
2023-06-17T00:03:14.045Z,65.32
2023-06-17T00:05:46.808Z,68.16
2023-06-17T00:08:19.085Z,66.07
2023-06-17T00:10:51.441Z,63.28
2023-06-17T00:13:26.766Z,59.14
2023-06-17T00:16:00.524Z,62.52
2023-06-17T00:18:34.017Z,61.16
2023-06-17T00:21:06.182Z,62.01
2023-06-17T00:23:38.430Z,61.04
2023-06-17T00:26:11.081Z,60.88
2023-06-17T00:28:45.904Z,60.64
2023-06-17T00:31:18.204Z,54.66
2023-06-17T00:33:50.419Z,58.69
2023-06-17T00:36:22.845Z,57.49
2023-06-17T00:38:55.168Z,56.48
2023-06-17T00:41:27.611Z,56.08
2023-06-17T00:44:02.542Z,55.41
2023-06-17T00:46:41.958Z,58.56
2023-06-17T00:49:15.037Z,61.81
2023-06-17T00:52:00.129Z,62.72
2023-06-17T00:54:37.784Z,62.49
2023-06-17T00:57:14.829Z,61.78
2023-06-17T00:59:50.498Z,59.01
2023-06-17T01:02:27.227Z,59.21
2023-06-17T01:04:59.849Z,64.18
2023-06-17T01:07:41.594Z,61.46
2023-06-17T01:10:26.078Z,69.26
2023-06-17T01:13:01.644Z,75.48
2023-06-17T01:15:38.376Z,67.31
2023-06-17T01:18:11.226Z,68.25
2023-06-17T01:20:45.007Z,62.39
2023-06-17T01:23:19.334Z,63.38
2023-06-17T01:25:59.278Z,66.49
2023-06-17T01:28:31.509Z,61.50
2023-06-17T01:31:04.017Z,67.74
2023-06-17T01:33:37.426Z,66.37
2023-06-17T01:36:19.039Z,64.60
2023-06-17T01:38:55.611Z,67.97
2023-06-17T01:41:44.213Z,68.38
2023-06-17T01:44:19.848Z,66.86
2023-06-17T01:46:52.229Z,67.86
2023-06-17T01:49:24.510Z,69.41
2023-06-17T01:51:56.791Z,69.36
2023-06-17T01:54:29.168Z,73.79
2023-06-17T01:57:04.736Z,72.26
2023-06-17T01:59:37.318Z,72.04
2023-06-17T02:02:10.057Z,73.06
2023-06-17T02:04:42.602Z,74.71
2023-06-17T02:07:14.916Z,73.91
2023-06-17T02:09:47.363Z,69.89
2023-06-17T02:12:22.280Z,70.29
2023-06-17T02:14:54.502Z,71.19
2023-06-17T02:17:29.100Z,72.51
2023-06-17T02:20:01.509Z,72.38
2023-06-17T02:22:33.812Z,71.26
2023-06-17T02:25:06.625Z,69.63
2023-06-17T02:27:41.736Z,76.22
2023-06-17T02:30:16.682Z,73.51
2023-06-17T02:32:49.042Z,71.00
2023-06-17T02:35:21.619Z,74.51
2023-06-17T02:37:56.936Z,75.34
2023-06-17T02:40:29.152Z,75.21
2023-06-17T02:43:03.980Z,70.86
2023-06-17T02:45:36.229Z,72.47
2023-06-17T02:48:08.754Z,72.84
2023-06-17T02:50:41.661Z,75.89
2023-06-17T02:53:13.842Z,74.94
2023-06-17T02:55:48.055Z,74.79
2023-06-17T02:58:22.930Z,79.06
2023-06-17T03:00:55.614Z,79.67
2023-06-17T03:03:35.537Z,76.14
2023-06-17T03:06:10.628Z,77.96
2023-06-17T03:08:44.962Z,76.14
2023-06-17T03:11:17.220Z,76.34
2023-06-17T03:13:52.033Z,72.59
2023-06-17T03:16:24.529Z,74.19
2023-06-17T03:18:56.768Z,73.44
2023-06-17T03:21:30.819Z,75.50
2023-06-17T03:24:04.103Z,78.10
2023-06-17T03:26:36.520Z,81.04
2023-06-17T03:29:11.703Z,81.63
2023-06-17T03:31:43.924Z,78.71
2023-06-17T03:34:16.388Z,80.79
2023-06-17T03:36:48.878Z,82.47
2023-06-17T03:39:21.203Z,79.56
2023-06-17T03:41:53.498Z,81.89
2023-06-17T03:44:28.332Z,76.06
2023-06-17T03:47:02.139Z,80.16
2023-06-17T03:49:34.415Z,80.92
2023-06-17T03:52:06.700Z,81.67
2023-06-17T03:54:40.593Z,89.91
2023-06-17T03:57:12.982Z,93.06
2023-06-17T03:59:47.746Z,94.69
2023-06-17T04:02:20.093Z,89.51
2023-06-17T04:04:53.942Z,94.65
2023-06-17T04:07:26.453Z,94.24
2023-06-17T04:10:07.278Z,95.26
2023-06-17T04:12:50.983Z,98.64
2023-06-17T04:15:25.871Z,99.78
2023-06-17T04:17:58.479Z,98.30
2023-06-17T04:20:31.225Z,96.49
2023-06-17T04:23:03.463Z,101.36
2023-06-17T04:25:38.390Z,100.85
2023-06-17T04:28:14.368Z,95.86
2023-06-17T04:30:49.571Z,104.68
2023-06-17T04:33:21.918Z,101.94
2023-06-17T04:35:55.157Z,98.32
2023-06-17T04:38:27.470Z,92.59
2023-06-17T04:40:59.726Z,93.92
2023-06-17T04:43:34.309Z,98.91
2023-06-17T04:46:09.964Z,100.94
2023-06-17T04:48:43.621Z,98.28
2023-06-17T04:51:19.078Z,93.07
2023-06-17T04:53:51.961Z,94.89
2023-06-17T04:56:28.232Z,99.86
2023-06-17T04:59:00.698Z,101.39
2023-06-17T05:01:35.554Z,104.79
2023-06-17T05:04:08.957Z,105.36
2023-06-17T05:06:41.347Z,105.84
2023-06-17T05:09:13.685Z,101.19
2023-06-17T05:11:46.395Z,105.78
2023-06-17T05:14:18.688Z,100.13
2023-06-17T05:16:53.619Z,98.46
2023-06-17T05:19:25.970Z,101.29
2023-06-17T05:21:58.218Z,104.03
2023-06-17T05:24:30.835Z,102.94
2023-06-17T05:27:03.192Z,97.85
2023-06-17T05:29:38.305Z,98.24
2023-06-17T05:32:14.716Z,99.99
2023-06-17T05:34:47.022Z,94.03
2023-06-17T05:37:19.441Z,97.07
2023-06-17T05:39:51.691Z,97.93
2023-06-17T05:42:23.982Z,93.39
2023-06-17T05:44:56.490Z,96.03
2023-06-17T05:47:31.477Z,94.71
2023-06-17T05:50:03.727Z,99.89
2023-06-17T05:52:35.969Z,90.36
2023-06-17T05:55:08.629Z,90.22
2023-06-17T05:57:41.060Z,86.53
2023-06-17T06:00:14.969Z,83.75
2023-06-17T06:02:49.817Z,77.74
2023-06-17T06:05:22.307Z,71.38
2023-06-17T06:07:54.541Z,70.31
2023-06-17T06:10:28.791Z,69.76
2023-06-17T06:13:01.013Z,68.65
2023-06-17T06:15:33.820Z,67.41
2023-06-17T06:18:09.007Z,65.58
2023-06-17T06:20:41.378Z,63.30
2023-06-17T06:23:13.583Z,60.95
2023-06-17T06:25:45.942Z,59.26
2023-06-17T06:28:18.186Z,58.00
2023-06-17T06:30:50.692Z,58.69
2023-06-17T06:33:25.888Z,58.43
2023-06-17T06:35:58.292Z,57.56
2023-06-17T06:38:30.449Z,59.16
2023-06-17T06:41:02.676Z,55.06
2023-06-17T06:43:35.192Z,56.30
2023-06-17T06:46:08.607Z,54.21
2023-06-17T06:48:43.452Z,54.83
2023-06-17T06:51:15.743Z,53.71
2023-06-17T06:53:48.282Z,55.51
2023-06-17T06:56:20.587Z,50.95
2023-06-17T06:58:52.829Z,52.37
2023-06-17T07:01:25.056Z,51.47
2023-06-17T07:03:59.874Z,52.99
2023-06-17T07:06:32.172Z,54.36
2023-06-17T07:09:07.643Z,50.80
2023-06-17T07:11:39.950Z,52.64
2023-06-17T07:14:12.312Z,53.46
2023-06-17T07:16:44.707Z,52.63
2023-06-17T07:19:19.626Z,50.33
2023-06-17T07:21:52.709Z,49.33
2023-06-17T07:24:25.026Z,48.32
2023-06-17T07:26:57.443Z,51.84
2023-06-17T07:29:29.716Z,48.92
2023-06-17T07:32:02.018Z,45.68
2023-06-17T07:34:36.789Z,45.80
2023-06-17T07:37:09.650Z,47.21
2023-06-17T07:39:41.782Z,46.16
2023-06-17T07:42:14.033Z,49.31
2023-06-17T07:44:46.167Z,49.66
2023-06-17T07:47:18.416Z,45.71
2023-06-17T07:49:53.242Z,46.99
2023-06-17T07:52:25.484Z,45.29
2023-06-17T07:54:57.999Z,46.69
2023-06-17T07:57:30.229Z,44.88
2023-06-17T08:00:02.641Z,45.60
2023-06-17T08:02:34.912Z,47.04
2023-06-17T08:05:10.770Z,46.46
2023-06-17T08:07:43.231Z,43.72
2023-06-17T08:10:15.475Z,41.54
2023-06-17T08:12:48.361Z,45.54
2023-06-17T08:15:21.007Z,43.11
2023-06-17T08:17:54.304Z,43.84
2023-06-17T08:20:29.847Z,42.52
2023-06-17T08:23:02.330Z,45.66
2023-06-17T08:25:34.898Z,42.59
2023-06-17T08:28:07.529Z,41.98
2023-06-17T08:30:39.765Z,44.29
2023-06-17T08:33:12.066Z,42.77
2023-06-17T08:35:46.996Z,40.91
2023-06-17T08:38:19.352Z,45.24
2023-06-17T08:40:51.702Z,45.61
2023-06-17T08:43:27.031Z,45.85
2023-06-17T08:46:02.533Z,46.15
2023-06-17T08:48:36.669Z,49.09
2023-06-17T08:51:13.745Z,47.97
2023-06-17T08:53:48.992Z,48.84
2023-06-17T08:56:21.383Z,49.54
2023-06-17T08:58:55.714Z,46.34
2023-06-17T09:01:29.462Z,46.24
2023-06-17T09:04:03.094Z,47.92
2023-06-17T09:06:38.019Z,48.81
2023-06-17T09:09:10.387Z,56.24
2023-06-17T09:11:45.646Z,50.74
2023-06-17T09:14:17.950Z,48.65
2023-06-17T09:16:50.792Z,51.19
2023-06-17T09:19:23.183Z,48.85
2023-06-17T09:21:59.772Z,49.39
2023-06-17T09:24:34.690Z,48.23
2023-06-17T09:27:07.743Z,52.86
2023-06-17T09:29:39.987Z,47.72
2023-06-17T09:32:12.398Z,46.96
2023-06-17T09:34:53.264Z,48.50
2023-06-17T09:37:28.258Z,50.64
2023-06-17T09:40:07.170Z,48.14
2023-06-17T09:42:39.644Z,47.01
2023-06-17T09:45:14.362Z,51.33
2023-06-17T09:47:46.827Z,49.20
2023-06-17T09:50:19.516Z,49.12
2023-06-17T09:52:55.884Z,48.48
2023-06-17T09:55:28.747Z,50.24
2023-06-17T09:58:03.053Z,48.31
2023-06-17T10:00:36.691Z,49.14
2023-06-17T10:03:08.981Z,47.41
2023-06-17T10:05:41.675Z,49.24
2023-06-17T10:08:17.310Z,49.69
2023-06-17T10:10:50.572Z,47.44
2023-06-17T10:13:26.731Z,48.49
2023-06-17T10:16:02.862Z,48.80
2023-06-17T10:18:38.761Z,50.13
2023-06-17T10:21:15.392Z,49.18
2023-06-17T10:23:51.911Z,49.95
2023-06-17T10:26:25.368Z,49.33
2023-06-17T10:29:08.219Z,48.86
2023-06-17T10:31:44.231Z,47.85
2023-06-17T10:34:21.537Z,47.33
2023-06-17T10:36:55.252Z,48.64
2023-06-17T10:39:30.643Z,48.15
2023-06-17T10:42:06.162Z,46.49
2023-06-17T10:44:48.854Z,46.17
2023-06-17T10:47:27.169Z,46.41
2023-06-17T10:50:01.927Z,49.34
2023-06-17T10:52:34.786Z,48.76
2023-06-17T10:55:10.183Z,48.70
2023-06-17T10:57:42.538Z,48.53
2023-06-17T11:00:15.688Z,47.34
2023-06-17T11:02:48.870Z,44.54
2023-06-17T11:05:21.491Z,47.39
2023-06-17T11:07:54.004Z,49.45
2023-06-17T11:10:32.595Z,45.42
2023-06-17T11:13:05.960Z,46.16
2023-06-17T11:15:38.129Z,49.76
2023-06-17T11:18:10.514Z,44.16
2023-06-17T11:20:42.864Z,48.62
2023-06-17T11:23:16.331Z,48.25
2023-06-17T11:25:54.684Z,45.86
2023-06-17T11:28:27.066Z,47.64
2023-06-17T11:31:01.008Z,46.59
2023-06-17T11:33:36.192Z,46.75
2023-06-17T11:36:15.227Z,46.91
2023-06-17T11:38:50.130Z,48.27
2023-06-17T11:41:25.261Z,46.29
2023-06-17T11:43:59.643Z,47.34
2023-06-17T11:46:32.068Z,45.66
2023-06-17T11:49:04.389Z,47.34
2023-06-17T11:51:36.612Z,46.32
2023-06-17T11:54:10.572Z,48.50
2023-06-17T11:56:45.899Z,48.85
2023-06-17T11:59:19.109Z,45.79
2023-06-17T12:01:53.218Z,44.88
2023-06-17T12:04:25.772Z,47.66
2023-06-17T12:06:58.308Z,44.27
2023-06-17T12:09:31.140Z,46.70
2023-06-17T12:12:05.976Z,47.20
2023-06-17T12:14:42.813Z,46.46
2023-06-17T12:17:23.461Z,45.31
2023-06-17T12:19:55.774Z,45.46
2023-06-17T12:22:28.071Z,48.12
2023-06-17T12:25:00.283Z,48.03
2023-06-17T12:27:36.128Z,46.42
2023-06-17T12:30:09.522Z,46.20
2023-06-17T12:32:44.579Z,48.97
2023-06-17T12:35:17.857Z,47.06
2023-06-17T12:37:55.884Z,45.86
2023-06-17T12:40:29.266Z,46.39
2023-06-17T12:43:04.153Z,50.38
2023-06-17T12:45:36.500Z,49.26
2023-06-17T12:48:09.092Z,47.19
2023-06-17T12:50:42.136Z,48.07
2023-06-17T12:53:14.603Z,46.61
2023-06-17T12:55:46.929Z,48.66
2023-06-17T12:58:21.828Z,46.87
2023-06-17T13:00:54.144Z,48.04
2023-06-17T13:03:26.779Z,47.64
2023-06-17T13:05:59.630Z,47.69
2023-06-17T13:08:31.931Z,49.48
2023-06-17T13:11:04.814Z,50.08
2023-06-17T13:13:39.635Z,46.43
2023-06-17T13:16:12.487Z,47.15
2023-06-17T13:18:44.699Z,47.99
2023-06-17T13:21:16.995Z,45.89
2023-06-17T13:23:49.628Z,46.44
2023-06-17T13:26:23.625Z,44.95
2023-06-17T13:28:58.459Z,44.74
2023-06-17T13:31:30.914Z,47.32
2023-06-17T13:34:03.306Z,46.25
2023-06-17T13:36:36.970Z,45.41
2023-06-17T13:39:09.920Z,46.53
2023-06-17T13:41:42.346Z,46.09
2023-06-17T13:44:17.897Z,45.06
2023-06-17T13:46:50.477Z,43.33
2023-06-17T13:49:23.185Z,45.69
2023-06-17T13:51:55.543Z,46.76
2023-06-17T13:54:28.413Z,44.99
2023-06-17T13:57:00.906Z,44.91
2023-06-17T13:59:36.257Z,44.78
2023-06-17T14:02:08.806Z,42.99
2023-06-17T14:04:41.311Z,46.21
2023-06-17T14:07:13.638Z,44.73
2023-06-17T14:09:46.131Z,45.81
2023-06-17T14:12:18.347Z,42.35
2023-06-17T14:14:53.703Z,43.16
2023-06-17T14:17:28.347Z,44.93
2023-06-17T14:20:00.869Z,43.24
2023-06-17T14:22:33.074Z,42.17
2023-06-17T14:25:05.326Z,43.24
2023-06-17T14:27:44.739Z,42.58
2023-06-17T14:30:20.524Z,44.19
2023-06-17T14:32:53.676Z,41.80
2023-06-17T14:35:26.168Z,42.99
2023-06-17T14:37:58.350Z,42.94
2023-06-17T14:40:30.564Z,44.31
2023-06-17T14:43:03.763Z,44.78
2023-06-17T14:45:38.757Z,43.10
2023-06-17T14:48:11.207Z,45.24
2023-06-17T14:50:43.591Z,44.36
2023-06-17T14:53:15.736Z,45.54
2023-06-17T14:56:06.628Z,44.06
2023-06-17T14:58:38.862Z,45.34
2023-06-17T15:01:13.671Z,44.99
2023-06-17T15:03:45.984Z,44.85
2023-06-17T15:06:18.363Z,44.96
2023-06-17T15:08:50.626Z,49.56
2023-06-17T15:11:22.871Z,44.89
2023-06-17T15:13:55.102Z,44.30
2023-06-17T15:16:30.119Z,43.69
2023-06-17T15:19:02.302Z,43.73
2023-06-17T15:21:34.556Z,42.80
2023-06-17T15:24:07.875Z,41.99
2023-06-17T15:26:40.416Z,38.85
2023-06-17T15:29:12.623Z,40.24
2023-06-17T15:31:48.129Z,40.28
2023-06-17T15:34:20.346Z,39.36
2023-06-17T15:36:55.074Z,38.94
2023-06-17T15:39:29.326Z,39.79
2023-06-17T15:42:01.617Z,37.03
2023-06-17T15:44:34.133Z,39.92
2023-06-17T15:47:09.734Z,40.37
2023-06-17T15:49:42.233Z,41.66
2023-06-17T15:52:14.429Z,42.12
2023-06-17T15:54:46.857Z,44.01
2023-06-17T15:57:20.206Z,42.19
2023-06-17T15:59:52.473Z,46.70
2023-06-17T16:02:27.304Z,43.14
2023-06-17T16:04:59.559Z,43.69
2023-06-17T16:07:33.143Z,45.21
2023-06-17T16:10:05.492Z,47.57
2023-06-17T16:12:38.776Z,49.22
2023-06-17T16:15:11.954Z,47.34
2023-06-17T16:17:46.862Z,50.31
2023-06-17T16:20:19.226Z,50.48
2023-06-17T16:22:51.550Z,48.83
2023-06-17T16:25:23.762Z,48.49
2023-06-17T16:27:56.173Z,49.29
2023-06-17T16:30:28.537Z,53.94
2023-06-17T16:33:03.344Z,53.75
2023-06-17T16:35:35.903Z,50.33
2023-06-17T16:38:08.137Z,46.96
2023-06-17T16:40:40.406Z,51.58
2023-06-17T16:43:12.663Z,49.21
2023-06-17T16:45:45.151Z,48.70
2023-06-17T16:48:20.035Z,51.90
2023-06-17T16:50:52.236Z,70.72
2023-06-17T16:53:24.930Z,70.07
2023-06-17T16:55:57.154Z,50.79
2023-06-17T16:58:29.430Z,50.19
2023-06-17T17:01:01.852Z,54.20
2023-06-17T17:03:39.996Z,53.77
2023-06-17T17:06:12.856Z,48.70
2023-06-17T17:08:45.230Z,47.63
2023-06-17T17:11:17.462Z,46.65
2023-06-17T17:13:50.163Z,46.71
2023-06-17T17:16:23.409Z,46.89
2023-06-17T17:18:58.317Z,48.10
2023-06-17T17:21:30.652Z,46.93
2023-06-17T17:24:05.776Z,44.76
2023-06-17T17:26:38.681Z,48.62
2023-06-17T17:29:11.065Z,50.54
2023-06-17T17:31:43.477Z,49.34
2023-06-17T17:34:18.355Z,50.67
2023-06-17T17:36:50.746Z,51.75
2023-06-17T17:39:22.895Z,50.74
2023-06-17T17:41:55.310Z,51.58
2023-06-17T17:44:27.504Z,52.96
2023-06-17T17:47:06.884Z,53.04
2023-06-17T17:49:41.705Z,54.71
2023-06-17T17:52:13.945Z,54.14
2023-06-17T17:55:00.660Z,52.71
2023-06-17T17:57:33.854Z,54.71
2023-06-17T18:00:06.054Z,54.54
2023-06-17T18:02:38.307Z,51.97
2023-06-17T18:05:14.110Z,53.91
2023-06-17T18:07:48.894Z,55.12
2023-06-17T18:10:22.221Z,56.79
2023-06-17T18:12:54.649Z,57.50
2023-06-17T18:15:26.856Z,55.90
2023-06-17T18:17:59.144Z,57.41
2023-06-17T18:20:33.991Z,57.37
2023-06-17T18:23:06.369Z,56.61
2023-06-17T18:25:38.798Z,58.71
2023-06-17T18:28:11.097Z,60.05
2023-06-17T18:30:44.208Z,59.84
2023-06-17T18:33:16.607Z,60.91
2023-06-17T18:35:51.421Z,57.93
2023-06-17T18:38:23.727Z,58.82
2023-06-17T18:40:56.012Z,57.10
2023-06-17T18:43:28.230Z,58.19
2023-06-17T18:46:00.558Z,58.03
2023-06-17T18:48:33.263Z,57.40
2023-06-17T18:51:08.323Z,58.76
2023-06-17T18:53:41.037Z,58.17
2023-06-17T18:56:13.445Z,57.25
2023-06-17T18:58:45.920Z,57.71
2023-06-17T19:01:18.225Z,54.11
2023-06-17T19:03:50.836Z,57.85
2023-06-17T19:06:25.729Z,56.79
2023-06-17T19:08:57.991Z,59.81
2023-06-17T19:11:30.213Z,65.84
2023-06-17T19:14:09.868Z,63.46
2023-06-17T19:16:42.277Z,62.18
2023-06-17T19:19:14.605Z,59.80
2023-06-17T19:21:49.439Z,59.81
2023-06-17T19:24:22.156Z,59.68
2023-06-17T19:26:54.545Z,59.79
2023-06-17T19:29:26.751Z,58.81
2023-06-17T19:31:59.626Z,58.04
2023-06-17T19:34:31.814Z,57.70
2023-06-17T19:37:06.765Z,57.64
2023-06-17T19:39:39.017Z,57.81
2023-06-17T19:42:11.588Z,58.46
2023-06-17T19:44:44.363Z,57.68
2023-06-17T19:47:18.024Z,58.67
2023-06-17T19:49:50.185Z,59.44
2023-06-17T19:52:25.164Z,60.47
2023-06-17T19:54:58.229Z,60.39
2023-06-17T19:57:33.009Z,60.36
2023-06-17T20:00:05.322Z,61.84
2023-06-17T20:02:37.857Z,63.89
2023-06-17T20:05:12.604Z,63.88
2023-06-17T20:07:47.687Z,62.36
2023-06-17T20:10:20.247Z,69.06
2023-06-17T20:12:58.661Z,63.47
2023-06-17T20:15:31.081Z,64.88
2023-06-17T20:18:03.425Z,68.05
2023-06-17T20:20:35.774Z,66.49
2023-06-17T20:23:11.161Z,69.11
2023-06-17T20:25:43.649Z,67.38
2023-06-17T20:28:16.009Z,68.27
2023-06-17T20:30:48.343Z,71.26
2023-06-17T20:33:20.599Z,69.41
2023-06-17T20:35:55.061Z,70.96
2023-06-17T20:38:29.884Z,66.49
2023-06-17T20:41:02.705Z,68.59
2023-06-17T20:43:35.562Z,69.02
2023-06-17T20:46:10.856Z,68.59
2023-06-17T20:48:43.136Z,69.44
2023-06-17T20:51:15.326Z,68.51
2023-06-17T20:53:50.123Z,65.39
2023-06-17T20:56:23.210Z,67.35
2023-06-17T20:58:56.891Z,68.64
2023-06-17T21:01:29.172Z,70.58
2023-06-17T21:04:01.662Z,69.19
2023-06-17T21:06:35.057Z,69.21
2023-06-17T21:09:10.361Z,68.87
2023-06-17T21:11:42.687Z,72.01
2023-06-17T21:14:14.993Z,67.09
2023-06-17T21:16:47.507Z,66.89
2023-06-17T21:19:19.803Z,75.61
2023-06-17T21:21:51.996Z,81.41
2023-06-17T21:24:26.913Z,81.67
2023-06-17T21:26:59.353Z,80.66
2023-06-17T21:29:31.595Z,81.92
2023-06-17T21:32:03.813Z,76.41
2023-06-17T21:34:36.147Z,77.43
2023-06-17T21:37:09.009Z,77.63
2023-06-17T21:39:43.776Z,80.14
2023-06-17T21:42:16.047Z,77.34
2023-06-17T21:44:48.338Z,76.19
2023-06-17T21:47:21.144Z,79.65
2023-06-17T21:49:53.508Z,82.47
2023-06-17T21:52:25.816Z,81.24
2023-06-17T21:55:00.683Z,76.17
2023-06-17T21:57:33.224Z,79.79
2023-06-17T22:00:06.871Z,76.06
2023-06-17T22:02:39.185Z,80.09
2023-06-17T22:05:12.045Z,80.24
2023-06-17T22:07:44.528Z,80.61
2023-06-17T22:10:19.511Z,79.67
2023-06-17T22:12:51.952Z,80.93
2023-06-17T22:15:24.192Z,78.66
2023-06-17T22:17:57.207Z,80.44
2023-06-17T22:20:29.484Z,83.21
2023-06-17T22:23:01.690Z,83.69
2023-06-17T22:25:36.495Z,86.49
2023-06-17T22:28:08.927Z,85.70
2023-06-17T22:30:41.259Z,84.16
2023-06-17T22:33:13.478Z,80.10
2023-06-17T22:35:46.092Z,81.29
2023-06-17T22:38:18.300Z,84.44
2023-06-17T22:40:53.560Z,83.23
2023-06-17T22:43:25.797Z,81.69
2023-06-17T22:45:58.145Z,78.20
2023-06-17T22:48:30.349Z,78.62
2023-06-17T22:51:02.968Z,75.52
2023-06-17T22:53:35.621Z,74.31
2023-06-17T22:56:10.575Z,72.55
2023-06-17T22:58:42.777Z,71.28
2023-06-17T23:01:15.020Z,72.09
2023-06-17T23:03:47.319Z,69.38
2023-06-17T23:06:19.779Z,73.31
2023-06-17T23:08:52.040Z,72.74
2023-06-17T23:11:26.833Z,74.57
2023-06-17T23:13:59.094Z,74.91
2023-06-17T23:16:31.610Z,72.76
2023-06-17T23:19:03.901Z,74.12
2023-06-17T23:21:38.065Z,75.46
2023-06-17T23:24:10.517Z,74.27
2023-06-17T23:26:46.053Z,72.76
2023-06-17T23:29:18.680Z,74.94
2023-06-17T23:31:51.769Z,75.53
2023-06-17T23:34:24.430Z,76.08
2023-06-17T23:36:56.912Z,77.15
2023-06-17T23:39:29.210Z,74.11
2023-06-17T23:42:04.058Z,74.33
2023-06-17T23:44:36.274Z,79.74
2023-06-17T23:47:08.757Z,80.22
2023-06-17T23:49:42.101Z,80.49
2023-06-17T23:52:14.981Z,81.32
2023-06-17T23:54:47.213Z,85.48
2023-06-17T23:57:22.282Z,85.02
2023-06-17T23:59:54.464Z,85.43
